createdAt,value
2023-05-12T00:00:47.799Z,6.1
2023-05-12T00:02:04.095Z,6.7
2023-05-12T00:03:20.399Z,7.3
2023-05-12T00:04:36.667Z,7.3
2023-05-12T00:05:52.973Z,5.8
2023-05-12T00:07:09.269Z,4.9
2023-05-12T00:08:25.555Z,6.4
2023-05-12T00:09:40.852Z,6.3
2023-05-12T00:10:57.147Z,5.5
2023-05-12T00:12:13.450Z,7.2
2023-05-12T00:13:29.747Z,7.2
2023-05-12T00:14:46.038Z,5.2
2023-05-12T00:16:02.333Z,5.4
2023-05-12T00:17:18.628Z,7.2
2023-05-12T00:18:34.922Z,5.3
2023-05-12T00:19:51.000Z,5.6
2023-05-12T00:21:07.511Z,6.6
2023-05-12T00:22:23.790Z,7.7
2023-05-12T00:23:40.071Z,6.6
2023-05-12T00:24:56.382Z,5.1
2023-05-12T00:26:11.682Z,6.1
2023-05-12T00:27:27.976Z,8.2
2023-05-12T00:28:44.260Z,7
2023-05-12T00:30:00.573Z,7.2
2023-05-12T00:31:16.842Z,5.6
2023-05-12T00:32:33.152Z,7.6
2023-05-12T00:33:49.433Z,7.7
2023-05-12T00:35:05.737Z,6.9
2023-05-12T00:36:22.014Z,9.4
2023-05-12T00:37:38.322Z,7
2023-05-12T00:38:54.610Z,5.8
2023-05-12T00:40:10.901Z,6.5
2023-05-12T00:41:27.203Z,5.5
2023-05-12T00:42:42.495Z,5.5
2023-05-12T00:43:58.789Z,7.7
2023-05-12T00:45:15.080Z,8.5
2023-05-12T00:46:31.397Z,7.2
2023-05-12T00:47:47.674Z,6.6
2023-05-12T00:49:03.953Z,7.7
2023-05-12T00:50:20.255Z,6.4
2023-05-12T00:51:36.556Z,5.3
2023-05-12T00:52:52.848Z,7.8
2023-05-12T00:54:09.139Z,6.3
2023-05-12T00:55:25.423Z,6.5
2023-05-12T00:56:41.726Z,6.7
2023-05-12T00:57:58.021Z,8
2023-05-12T00:59:13.318Z,8
2023-05-12T01:00:29.618Z,8.1
2023-05-12T01:01:45.902Z,6.6
2023-05-12T01:03:02.198Z,5.4
2023-05-12T01:04:18.482Z,8.8
2023-05-12T01:05:34.790Z,6.1
2023-05-12T01:06:51.070Z,6.2
2023-05-12T01:08:07.358Z,7.4
2023-05-12T01:09:23.661Z,4.8
2023-05-12T01:10:39.952Z,7.3
2023-05-12T01:11:56.261Z,6.7
2023-05-12T01:13:12.530Z,6.5
2023-05-12T01:14:28.826Z,7.7
2023-05-12T01:15:44.139Z,6.8
2023-05-12T01:17:00.423Z,6.4
2023-05-12T01:18:16.718Z,7.4
2023-05-12T01:19:33.019Z,6
2023-05-12T01:20:49.321Z,6.4
2023-05-12T01:22:05.593Z,7.5
2023-05-12T01:23:21.896Z,6.2
2023-05-12T01:24:38.189Z,8.6
2023-05-12T01:25:54.491Z,5.6
2023-05-12T01:27:10.763Z,6
2023-05-12T01:28:27.065Z,7.2
2023-05-12T01:29:43.352Z,7.7
2023-05-12T01:30:59.643Z,6
2023-05-12T01:32:14.958Z,6.5
2023-05-12T01:33:31.262Z,6.6
2023-05-12T01:34:47.543Z,7
2023-05-12T01:36:03.856Z,7.7
2023-05-12T01:37:20.150Z,7.3
2023-05-12T01:38:36.439Z,7.4
2023-05-12T01:39:52.717Z,5.7
2023-05-12T01:41:08.999Z,9.5
2023-05-12T01:42:25.295Z,8.4
2023-05-12T01:43:41.617Z,7.3
2023-05-12T01:44:57.907Z,7.6
2023-05-12T01:46:14.202Z,6.2
2023-05-12T01:47:30.474Z,6.1
2023-05-12T01:48:45.785Z,9.3
2023-05-12T01:50:02.090Z,7
2023-05-12T01:51:18.379Z,7.4
2023-05-12T01:52:34.649Z,6
2023-05-12T01:53:50.946Z,8.7
2023-05-12T01:55:07.246Z,7.1
2023-05-12T01:56:23.528Z,6.5
2023-05-12T01:57:39.834Z,8.4
2023-05-12T01:58:56.132Z,8
2023-05-12T02:00:12.416Z,7.5
2023-05-12T02:01:28.711Z,7.2
2023-05-12T02:02:44.991Z,8
2023-05-12T02:04:01.296Z,7.2
2023-05-12T02:05:16.623Z,10.4
2023-05-12T02:06:32.900Z,5.9
2023-05-12T02:07:49.177Z,7.4
2023-05-12T02:09:05.490Z,8.2
2023-05-12T02:10:21.787Z,8.2
2023-05-12T02:11:38.061Z,7.5
2023-05-12T02:12:54.349Z,6.8
2023-05-12T02:14:10.652Z,7.5
2023-05-12T02:15:26.930Z,6.1
2023-05-12T02:16:43.227Z,7.9
2023-05-12T02:17:59.516Z,7.5
2023-05-12T02:19:15.807Z,6.5
2023-05-12T02:20:32.119Z,6.4
2023-05-12T02:21:47.443Z,8.3
2023-05-12T02:23:03.735Z,7.6
2023-05-12T02:24:19.995Z,6.9
2023-05-12T02:25:36.310Z,7.1
2023-05-12T02:26:52.611Z,7
2023-05-12T02:28:08.893Z,6.8
2023-05-12T02:29:25.186Z,7
2023-05-12T02:30:41.459Z,7.9
2023-05-12T02:31:57.772Z,6.4
2023-05-12T02:33:14.056Z,6.9
2023-05-12T02:34:30.338Z,7
2023-05-12T02:35:46.635Z,9
2023-05-12T02:37:02.937Z,6.9
2023-05-12T02:38:18.229Z,6.7
2023-05-12T02:39:34.542Z,6.4
2023-05-12T02:40:50.831Z,7
2023-05-12T02:42:07.138Z,6.7
2023-05-12T02:43:23.000Z,7
2023-05-12T02:44:39.717Z,8.1
2023-05-12T02:45:56.001Z,10
2023-05-12T02:47:12.301Z,7.5
2023-05-12T02:48:28.571Z,6.7
2023-05-12T02:49:44.871Z,9.2
2023-05-12T02:51:01.178Z,7.7
2023-05-12T02:52:17.453Z,8.3
2023-05-12T02:53:33.763Z,7.1
2023-05-12T02:54:49.000Z,9.8
2023-05-12T02:56:05.290Z,6.3
2023-05-12T02:57:21.591Z,9.3
2023-05-12T02:58:37.844Z,6.9
2023-05-12T02:59:54.090Z,7.4
2023-05-12T03:01:10.378Z,6.8
2023-05-12T03:02:26.683Z,7.2
2023-05-12T03:03:42.000Z,7.7
2023-05-12T03:04:59.144Z,7.6
2023-05-12T03:06:15.430Z,7.1
2023-05-12T03:07:31.691Z,7.7
2023-05-12T03:08:47.962Z,6.9
2023-05-12T03:10:04.186Z,7.7
2023-05-12T03:11:19.452Z,8.4
2023-05-12T03:12:35.688Z,8.9
2023-05-12T03:13:51.908Z,11.5
2023-05-12T03:15:08.156Z,8.7
2023-05-12T03:16:24.384Z,8.8
2023-05-12T03:17:40.657Z,6.7
2023-05-12T03:18:56.891Z,7.2
2023-05-12T03:20:13.125Z,6.9
2023-05-12T03:21:29.341Z,8.4
2023-05-12T03:22:45.579Z,8.2
2023-05-12T03:24:01.849Z,7.8
2023-05-12T03:25:18.068Z,9.1
2023-05-12T03:26:34.304Z,9
2023-05-12T03:27:49.586Z,7.3
2023-05-12T03:29:05.790Z,9.1
2023-05-12T03:30:22.051Z,8
2023-05-12T03:31:38.274Z,8.5
2023-05-12T03:32:54.503Z,10.2
2023-05-12T03:34:10.753Z,10.8
2023-05-12T03:35:26.998Z,10
2023-05-12T03:36:43.219Z,10.8
2023-05-12T03:37:59.467Z,10.2
2023-05-12T03:39:15.726Z,9.2
2023-05-12T03:40:31.946Z,10.1
2023-05-12T03:41:48.194Z,9.4
2023-05-12T03:43:04.420Z,8.9
2023-05-12T03:44:19.710Z,7.9
2023-05-12T03:45:35.919Z,10.3
2023-05-12T03:46:52.176Z,10.6
2023-05-12T03:48:08.400Z,8.3
2023-05-12T03:49:24.629Z,8.6
2023-05-12T03:50:40.887Z,8.8
2023-05-12T03:51:56.149Z,9
2023-05-12T03:53:12.370Z,9.2
2023-05-12T03:54:28.617Z,8.2
2023-05-12T03:55:44.839Z,10.2
2023-05-12T03:57:01.094Z,9.4
2023-05-12T03:58:17.324Z,7.9
2023-05-12T03:59:33.584Z,8.1
2023-05-12T04:00:49.800Z,9.1
2023-05-12T04:02:06.042Z,10.1
2023-05-12T04:03:22.275Z,9.3
2023-05-12T04:04:38.518Z,8.3
2023-05-12T04:05:54.778Z,10.3
2023-05-12T04:07:10.991Z,8.5
2023-05-12T04:08:26.252Z,8.6
2023-05-12T04:09:42.484Z,7.7
2023-05-12T04:10:58.737Z,9.5
2023-05-12T04:12:14.970Z,9.7
2023-05-12T04:13:31.205Z,11.3
2023-05-12T04:14:47.446Z,9.1
2023-05-12T04:16:03.703Z,9.8
2023-05-12T04:17:19.932Z,10
2023-05-12T04:18:36.158Z,10.3
2023-05-12T04:19:52.394Z,9.9
2023-05-12T04:21:08.656Z,9.5
2023-05-12T04:22:24.903Z,8.4
2023-05-12T04:23:41.115Z,9.6
2023-05-12T04:24:56.000Z,11.3
2023-05-12T04:26:12.619Z,10
2023-05-12T04:27:28.855Z,10.5
2023-05-12T04:28:45.101Z,9.3
2023-05-12T04:30:01.319Z,10.5
2023-05-12T04:31:17.566Z,8.9
2023-05-12T04:32:33.800Z,10.1
2023-05-12T04:33:50.062Z,10.7
2023-05-12T04:35:06.281Z,12.3
2023-05-12T04:36:22.518Z,10.4
2023-05-12T04:37:38.761Z,11
2023-05-12T04:38:55.004Z,10.1
2023-05-12T04:40:11.260Z,10.3
2023-05-12T04:41:26.514Z,12.4
2023-05-12T04:42:42.738Z,10.9
2023-05-12T04:43:58.963Z,8.9
2023-05-12T04:45:15.225Z,10.6
2023-05-12T04:46:31.442Z,12.5
2023-05-12T04:47:47.705Z,10.9
2023-05-12T04:49:03.926Z,10.9
2023-05-12T04:50:20.164Z,12.5
2023-05-12T04:51:36.406Z,12.3
2023-05-12T04:52:52.662Z,14.1
2023-05-12T04:54:08.905Z,9.7
2023-05-12T04:55:25.151Z,10.8
2023-05-12T04:56:41.357Z,12.5
2023-05-12T04:57:56.610Z,14.3
2023-05-12T04:59:12.869Z,10.5
2023-05-12T05:00:29.119Z,11.2
2023-05-12T05:01:45.359Z,12.4
2023-05-12T05:03:01.591Z,9.4
2023-05-12T05:04:17.805Z,10.2
2023-05-12T05:05:34.072Z,9.5
2023-05-12T05:06:50.276Z,13.4
2023-05-12T05:08:06.512Z,11.9
2023-05-12T05:09:22.758Z,11.2
2023-05-12T05:10:39.033Z,13.4
2023-05-12T05:11:55.228Z,9.7
2023-05-12T05:13:11.469Z,11.8
2023-05-12T05:14:26.721Z,11.6
2023-05-12T05:15:42.990Z,13
2023-05-12T05:16:59.201Z,11.1
2023-05-12T05:18:15.444Z,9.5
2023-05-12T05:19:31.000Z,9.7
2023-05-12T05:20:47.920Z,9.9
2023-05-12T05:22:04.154Z,12.3
2023-05-12T05:23:20.424Z,12
2023-05-12T05:24:36.665Z,11
2023-05-12T05:25:52.888Z,14.8
2023-05-12T05:27:09.108Z,10.5
2023-05-12T05:28:25.353Z,10.3
2023-05-12T05:29:41.593Z,12.3
2023-05-12T05:30:56.869Z,11.2
2023-05-12T05:32:13.000Z,10.1
2023-05-12T05:33:29.320Z,9.6
2023-05-12T05:34:45.556Z,13.7
2023-05-12T05:36:01.815Z,11.9
2023-05-12T05:37:18.048Z,11.9
2023-05-12T05:38:34.305Z,11.2
2023-05-12T05:39:50.514Z,11.9
2023-05-12T05:41:06.782Z,10.7
2023-05-12T05:42:23.034Z,10.8
2023-05-12T05:43:39.230Z,12.6
2023-05-12T05:44:55.473Z,10.5
2023-05-12T05:46:11.705Z,11.8
2023-05-12T05:47:26.963Z,12.2
2023-05-12T05:48:43.232Z,11.1
2023-05-12T05:49:59.445Z,11.2
2023-05-12T05:51:15.687Z,11.9
2023-05-12T05:52:31.943Z,11.2
2023-05-12T05:53:48.159Z,10.3
2023-05-12T05:55:04.396Z,11.7
2023-05-12T05:56:20.657Z,11.7
2023-05-12T05:57:36.899Z,11.2
2023-05-12T05:58:53.118Z,13.1
2023-05-12T06:00:09.348Z,10.3
2023-05-12T06:01:25.614Z,12.7
2023-05-12T06:02:41.835Z,10.5
2023-05-12T06:03:57.119Z,11.5
2023-05-12T06:05:13.319Z,13.1
2023-05-12T06:06:29.000Z,11.1
2023-05-12T06:07:45.828Z,8.9
2023-05-12T06:09:02.034Z,10.2
2023-05-12T06:10:18.300Z,13.5
2023-05-12T06:11:34.550Z,11.1
2023-05-12T06:12:50.752Z,10.9
2023-05-12T06:14:07.018Z,12.2
2023-05-12T06:15:23.229Z,11.9
2023-05-12T06:16:39.466Z,10.1
2023-05-12T06:17:55.718Z,9.6
2023-05-12T06:19:11.974Z,9
2023-05-12T06:20:27.234Z,11
2023-05-12T06:21:43.439Z,11.2
2023-05-12T06:22:59.720Z,10.1
2023-05-12T06:24:15.949Z,12.4
2023-05-12T06:25:32.197Z,10.3
2023-05-12T06:26:48.428Z,10.9
2023-05-12T06:28:04.638Z,11.3
2023-05-12T06:29:20.914Z,10
2023-05-12T06:30:37.126Z,11.3
2023-05-12T06:31:53.383Z,10.8
2023-05-12T06:33:09.000Z,11.5
2023-05-12T06:34:25.828Z,10.1
2023-05-12T06:35:42.077Z,10.6
2023-05-12T06:36:57.000Z,9.7
2023-05-12T06:38:13.558Z,9.5
2023-05-12T06:39:29.796Z,11.3
2023-05-12T06:40:46.067Z,12.1
2023-05-12T06:42:02.277Z,12.3
2023-05-12T06:43:18.514Z,8.9
2023-05-12T06:44:34.756Z,12.1
2023-05-12T06:45:50.998Z,9.8
2023-05-12T06:47:07.235Z,11.8
2023-05-12T06:48:23.476Z,11
2023-05-12T06:49:39.742Z,9.6
2023-05-12T06:50:55.956Z,10.5
2023-05-12T06:52:12.190Z,10.6
2023-05-12T06:53:28.556Z,11.7
2023-05-12T06:54:44.790Z,11.1
2023-05-12T06:56:01.040Z,7.6
2023-05-12T06:57:17.293Z,10.6
2023-05-12T06:58:33.508Z,9
2023-05-12T06:59:49.738Z,9.7
2023-05-12T07:01:05.981Z,9.9
2023-05-12T07:02:22.219Z,8.9
2023-05-12T07:03:38.492Z,13.2
2023-05-12T07:04:54.710Z,14
2023-05-12T07:06:10.962Z,10.5
2023-05-12T07:07:27.192Z,7.7
2023-05-12T07:08:43.417Z,10.2
2023-05-12T07:09:58.697Z,8.8
2023-05-12T07:11:14.923Z,9.7
2023-05-12T07:12:31.000Z,7.9
2023-05-12T07:13:47.393Z,10.1
2023-05-12T07:15:03.626Z,11.5
2023-05-12T07:16:19.897Z,7.1
2023-05-12T07:17:36.112Z,8.3
2023-05-12T07:18:52.338Z,9
2023-05-12T07:20:08.609Z,9
2023-05-12T07:21:24.850Z,7.5
2023-05-12T07:22:41.091Z,10.6
2023-05-12T07:23:57.304Z,7.5
2023-05-12T07:25:13.540Z,9.8
2023-05-12T07:26:28.795Z,10.8
2023-05-12T07:27:45.063Z,11.3
2023-05-12T07:29:01.314Z,10.7
2023-05-12T07:30:17.548Z,9.3
2023-05-12T07:31:33.749Z,12.1
2023-05-12T07:32:50.020Z,11.2
2023-05-12T07:34:06.254Z,8.3
2023-05-12T07:35:22.473Z,10.1
2023-05-12T07:36:38.706Z,9.7
2023-05-12T07:37:54.968Z,9.6
2023-05-12T07:39:11.191Z,8.5
2023-05-12T07:40:27.453Z,9
2023-05-12T07:41:43.672Z,8.7
2023-05-12T07:42:58.917Z,10.5
2023-05-12T07:44:15.165Z,8.8
2023-05-12T07:45:31.402Z,8.2
2023-05-12T07:46:47.636Z,12.3
2023-05-12T07:48:03.867Z,7.3
2023-05-12T07:49:20.135Z,7.7
2023-05-12T07:50:36.378Z,8.6
2023-05-12T07:51:52.590Z,8.9
2023-05-12T07:53:08.834Z,10.4
2023-05-12T07:54:25.066Z,8.1
2023-05-12T07:55:41.314Z,8.9
2023-05-12T07:56:57.545Z,8.2
2023-05-12T07:58:13.787Z,8.2
2023-05-12T07:59:29.037Z,8.3
2023-05-12T08:00:45.311Z,8.1
2023-05-12T08:02:01.559Z,8.1
2023-05-12T08:03:17.748Z,6.8
2023-05-12T08:04:33.990Z,9
2023-05-12T08:05:50.232Z,8.2
2023-05-12T08:07:05.504Z,9.1
2023-05-12T08:08:21.765Z,8.6
2023-05-12T08:09:38.006Z,7.5
2023-05-12T08:10:54.206Z,11.7
2023-05-12T08:12:10.460Z,7.2
2023-05-12T08:13:26.685Z,7.9
2023-05-12T08:14:42.924Z,7.9
2023-05-12T08:15:59.207Z,8.5
2023-05-12T08:17:15.433Z,7.2
2023-05-12T08:18:31.682Z,10
2023-05-12T08:19:47.890Z,10.4
2023-05-12T08:21:04.166Z,7.5
2023-05-12T08:22:20.357Z,7.4
2023-05-12T08:23:35.632Z,6.9
2023-05-12T08:24:51.888Z,8
2023-05-12T08:26:08.133Z,7.3
2023-05-12T08:27:24.372Z,8.2
2023-05-12T08:28:40.606Z,7.3
2023-05-12T08:29:56.825Z,7.1
2023-05-12T08:31:13.000Z,8.5
2023-05-12T08:32:29.304Z,9.1
2023-05-12T08:33:45.529Z,9.4
2023-05-12T08:35:01.798Z,8.2
2023-05-12T08:36:18.037Z,7.9
2023-05-12T08:37:34.276Z,12.8
2023-05-12T08:38:50.516Z,8.2
2023-05-12T08:40:05.771Z,10
2023-05-12T08:41:22.011Z,9.5
2023-05-12T08:42:38.251Z,9.9
2023-05-12T08:43:54.490Z,8.3
2023-05-12T08:45:10.730Z,9.9
2023-05-12T08:46:26.000Z,8.3
2023-05-12T08:47:43.209Z,9
2023-05-12T08:48:59.448Z,11
2023-05-12T08:50:15.667Z,7.9
2023-05-12T08:51:31.927Z,8.1
2023-05-12T08:52:48.167Z,8.4
2023-05-12T08:54:04.406Z,8.4
2023-05-12T08:55:20.646Z,9.7
2023-05-12T08:56:35.901Z,7.8
2023-05-12T08:57:52.140Z,8.5
2023-05-12T08:59:08.379Z,9.6
2023-05-12T09:00:24.619Z,8.6
2023-05-12T09:01:40.858Z,8.9
2023-05-12T09:02:57.098Z,8.4
2023-05-12T09:04:13.338Z,6.7
2023-05-12T09:05:29.577Z,7.6
2023-05-12T09:06:45.816Z,7.8
2023-05-12T09:08:02.000Z,7.7
2023-05-12T09:09:18.283Z,9.3
2023-05-12T09:10:34.535Z,9.9
2023-05-12T09:11:50.774Z,7.6
2023-05-12T09:13:06.030Z,7.2
2023-05-12T09:14:22.276Z,8.2
2023-05-12T09:15:38.479Z,10.8
2023-05-12T09:16:54.749Z,9.3
2023-05-12T09:18:10.989Z,10.1
2023-05-12T09:19:27.229Z,7.4
2023-05-12T09:20:43.469Z,9.7
2023-05-12T09:21:59.718Z,7.5
2023-05-12T09:23:15.948Z,8.7
2023-05-12T09:24:32.188Z,8.6
2023-05-12T09:25:48.427Z,8.1
2023-05-12T09:27:04.667Z,9.2
2023-05-12T09:28:20.907Z,12.4
2023-05-12T09:29:36.163Z,9.4
2023-05-12T09:30:52.403Z,7.8
2023-05-12T09:32:08.643Z,8.9
2023-05-12T09:33:24.883Z,11.6
2023-05-12T09:34:41.123Z,8.9
2023-05-12T09:35:57.348Z,7.7
2023-05-12T09:37:13.603Z,8.7
2023-05-12T09:38:29.844Z,7.4
2023-05-12T09:39:46.084Z,7.4
2023-05-12T09:41:02.324Z,10.2
2023-05-12T09:42:18.583Z,9.3
2023-05-12T09:43:34.804Z,7.2
2023-05-12T09:44:51.044Z,5.7
2023-05-12T09:46:06.300Z,9.7
2023-05-12T09:47:22.541Z,8.2
2023-05-12T09:48:38.781Z,7.7
2023-05-12T09:49:55.021Z,8.9
2023-05-12T09:51:11.262Z,7.5
2023-05-12T09:52:27.502Z,6.1
2023-05-12T09:53:43.715Z,7.4
2023-05-12T09:54:59.983Z,7.4
2023-05-12T09:56:16.223Z,11.3
2023-05-12T09:57:32.464Z,9.6
2023-05-12T09:58:48.704Z,6.9
2023-05-12T10:00:04.945Z,8
2023-05-12T10:01:21.185Z,6.4
2023-05-12T10:02:36.442Z,9.5
2023-05-12T10:03:52.661Z,10.4
2023-05-12T10:05:08.923Z,9
2023-05-12T10:06:25.148Z,7.5
2023-05-12T10:07:41.404Z,9.1
2023-05-12T10:08:57.644Z,8.1
2023-05-12T10:10:13.885Z,8.1
2023-05-12T10:11:30.094Z,8.2
2023-05-12T10:12:46.331Z,6.9
2023-05-12T10:14:02.604Z,7.9
2023-05-12T10:15:18.844Z,8.7
2023-05-12T10:16:35.084Z,9.6
2023-05-12T10:17:51.325Z,9.5
2023-05-12T10:19:06.581Z,7.2
2023-05-12T10:20:22.821Z,7.9
2023-05-12T10:21:39.061Z,7.5
2023-05-12T10:22:55.301Z,8.7
2023-05-12T10:24:11.541Z,9.9
2023-05-12T10:25:27.781Z,8.7
2023-05-12T10:26:44.000Z,8.6
2023-05-12T10:28:00.261Z,6.9
2023-05-12T10:29:16.502Z,10.3
2023-05-12T10:30:32.754Z,6.2
2023-05-12T10:31:48.983Z,8.2
2023-05-12T10:33:05.223Z,5.6
2023-05-12T10:34:21.462Z,7.3
2023-05-12T10:35:36.718Z,7.4
2023-05-12T10:36:52.943Z,9
2023-05-12T10:38:09.198Z,7.9
2023-05-12T10:39:25.408Z,6.9
2023-05-12T10:40:41.677Z,7.8
2023-05-12T10:41:57.000Z,7
2023-05-12T10:43:14.156Z,7.2
2023-05-12T10:44:30.396Z,7.7
2023-05-12T10:45:46.635Z,9.2
2023-05-12T10:47:02.875Z,10.3
2023-05-12T10:48:19.115Z,7.1
2023-05-12T10:49:35.354Z,11.6
2023-05-12T10:50:51.593Z,10
2023-05-12T10:52:06.849Z,7.2
2023-05-12T10:53:23.088Z,6.7
2023-05-12T10:54:39.327Z,9.5
2023-05-12T10:55:55.548Z,6.7
2023-05-12T10:57:11.806Z,7.3
2023-05-12T10:58:28.045Z,6.3
2023-05-12T10:59:44.284Z,8.8
2023-05-12T11:01:00.523Z,8.2
2023-05-12T11:02:16.731Z,6.9
2023-05-12T11:03:33.000Z,8.3
2023-05-12T11:04:49.207Z,8.3
2023-05-12T11:06:05.477Z,8.6
2023-05-12T11:07:21.000Z,9
2023-05-12T11:08:36.000Z,8
2023-05-12T11:09:53.000Z,8.3
2023-05-12T11:11:09.449Z,7
2023-05-12T11:12:25.688Z,6.1
2023-05-12T11:13:41.927Z,10.4
2023-05-12T11:14:58.166Z,6.7
2023-05-12T11:16:14.405Z,7.9
2023-05-12T11:17:30.000Z,7.2
2023-05-12T11:18:46.000Z,5.7
2023-05-12T11:20:03.119Z,6.8
2023-05-12T11:21:19.358Z,7.8
2023-05-12T11:22:35.596Z,8.8
2023-05-12T11:23:51.835Z,7.4
2023-05-12T11:25:07.089Z,7.5
2023-05-12T11:26:23.328Z,5
2023-05-12T11:27:39.567Z,5
2023-05-12T11:28:55.805Z,9.2
2023-05-12T11:30:12.013Z,6.3
2023-05-12T11:31:28.282Z,6.6
2023-05-12T11:32:44.520Z,6.3
2023-05-12T11:34:00.758Z,7.5
2023-05-12T11:35:16.997Z,6.7
2023-05-12T11:36:33.235Z,5.7
2023-05-12T11:37:49.473Z,7.2
2023-05-12T11:39:05.712Z,7.1
2023-05-12T11:40:21.950Z,9.5
2023-05-12T11:41:37.205Z,8.5
2023-05-12T11:42:53.443Z,5.8
2023-05-12T11:44:09.681Z,5.6
2023-05-12T11:45:25.920Z,7.1
2023-05-12T11:46:42.158Z,6.4
2023-05-12T11:47:58.397Z,7.2
2023-05-12T11:49:14.635Z,6.5
2023-05-12T11:50:30.874Z,6.1
2023-05-12T11:51:47.112Z,5.6
2023-05-12T11:53:03.350Z,5.9
2023-05-12T11:54:19.589Z,6.1
2023-05-12T11:55:35.806Z,6.8
2023-05-12T11:56:52.067Z,6.8
2023-05-12T11:58:07.322Z,5.6
2023-05-12T11:59:23.561Z,7.7
2023-05-12T12:00:39.800Z,8
2023-05-12T12:01:56.000Z,7.9
2023-05-12T12:03:12.277Z,7.8
2023-05-12T12:04:28.515Z,6.3
2023-05-12T12:05:44.737Z,5.6
2023-05-12T12:07:00.992Z,7.5
2023-05-12T12:08:17.231Z,6.1
2023-05-12T12:09:33.469Z,5.9
2023-05-12T12:10:49.691Z,7.7
2023-05-12T12:12:05.946Z,7.8
2023-05-12T12:13:22.184Z,5.5
2023-05-12T12:14:37.439Z,6.5
2023-05-12T12:15:53.677Z,5.9
2023-05-12T12:17:09.915Z,6.2
2023-05-12T12:18:26.121Z,7.5
2023-05-12T12:19:42.392Z,6.3
2023-05-12T12:20:58.617Z,8.4
2023-05-12T12:22:13.890Z,6.4
2023-05-12T12:23:30.104Z,8.1
2023-05-12T12:24:46.336Z,6.5
2023-05-12T12:26:02.577Z,7.1
2023-05-12T12:27:18.845Z,8.2
2023-05-12T12:28:35.105Z,6.7
2023-05-12T12:29:51.302Z,5.7
2023-05-12T12:31:07.560Z,8
2023-05-12T12:32:23.770Z,7.7
2023-05-12T12:33:40.037Z,6.8
2023-05-12T12:34:56.275Z,5
2023-05-12T12:36:12.514Z,8.4
2023-05-12T12:37:28.725Z,7.6
2023-05-12T12:38:44.006Z,8
2023-05-12T12:40:00.245Z,6.8
2023-05-12T12:41:16.483Z,7.2
2023-05-12T12:42:32.736Z,6.4
2023-05-12T12:43:48.931Z,7.8
2023-05-12T12:45:05.165Z,7.7
2023-05-12T12:46:21.437Z,8.4
2023-05-12T12:47:37.647Z,5.5
2023-05-12T12:48:53.914Z,8.9
2023-05-12T12:50:10.179Z,5.4
2023-05-12T12:51:26.391Z,6.4
2023-05-12T12:52:42.656Z,6.5
2023-05-12T12:53:58.853Z,6.1
2023-05-12T12:55:14.123Z,8.4
2023-05-12T12:56:30.332Z,8.3
2023-05-12T12:57:46.567Z,7.7
2023-05-12T12:59:02.838Z,6.4
2023-05-12T13:00:19.061Z,5.9
2023-05-12T13:01:35.314Z,5.6
2023-05-12T13:02:51.584Z,8.3
2023-05-12T13:04:07.791Z,8.1
2023-05-12T13:05:24.049Z,6.3
2023-05-12T13:06:40.268Z,6.5
2023-05-12T13:07:56.523Z,8.3
2023-05-12T13:09:12.745Z,5.6
2023-05-12T13:10:28.954Z,4.9
2023-05-12T13:11:44.209Z,6.4
2023-05-12T13:13:00.496Z,7.6
2023-05-12T13:14:16.716Z,7.4
2023-05-12T13:15:32.920Z,6.7
2023-05-12T13:16:49.177Z,10.3
2023-05-12T13:18:05.399Z,7.5
2023-05-12T13:19:21.669Z,8.2
2023-05-12T13:20:37.908Z,7.8
2023-05-12T13:21:54.146Z,6.5
2023-05-12T13:23:10.412Z,6.7
2023-05-12T13:24:26.623Z,5.6
2023-05-12T13:25:42.861Z,8.6
2023-05-12T13:26:59.100Z,5.7
2023-05-12T13:28:14.354Z,6.7
2023-05-12T13:29:30.562Z,6.2
2023-05-12T13:30:46.831Z,9
2023-05-12T13:32:03.037Z,6.1
2023-05-12T13:33:19.308Z,6.3
2023-05-12T13:34:35.000Z,9.1
2023-05-12T13:35:51.765Z,7.5
2023-05-12T13:37:08.023Z,7.3
2023-05-12T13:38:24.262Z,7.2
2023-05-12T13:39:40.470Z,7.8
2023-05-12T13:40:56.715Z,6.2
2023-05-12T13:42:12.948Z,6.3
2023-05-12T13:43:29.181Z,6.8
2023-05-12T13:44:44.469Z,7.1
2023-05-12T13:46:00.739Z,8.8
2023-05-12T13:47:16.945Z,5.6
2023-05-12T13:48:33.162Z,7.2
2023-05-12T13:49:49.391Z,6.1
2023-05-12T13:51:05.661Z,5.9
2023-05-12T13:52:21.870Z,6.4
2023-05-12T13:53:38.155Z,9
2023-05-12T13:54:54.377Z,8
2023-05-12T13:56:10.589Z,6.7
2023-05-12T13:57:26.853Z,8
2023-05-12T13:58:43.059Z,6.7
2023-05-12T13:59:59.304Z,8.9
2023-05-12T14:01:14.585Z,8
2023-05-12T14:02:30.823Z,8.4
2023-05-12T14:03:47.062Z,7.2
2023-05-12T14:05:03.276Z,5.9
2023-05-12T14:06:19.513Z,5.4
2023-05-12T14:07:35.745Z,6.1
2023-05-12T14:08:51.983Z,7.7
2023-05-12T14:10:08.000Z,7.1
2023-05-12T14:11:24.476Z,5.8
2023-05-12T14:12:40.000Z,5.6
2023-05-12T14:13:56.000Z,7.1
2023-05-12T14:15:13.207Z,7.8
2023-05-12T14:16:29.464Z,6.1
2023-05-12T14:17:44.669Z,6.5
2023-05-12T14:19:00.000Z,6.9
2023-05-12T14:20:17.160Z,9.2
2023-05-12T14:21:33.386Z,6.5
2023-05-12T14:22:49.626Z,6.3
2023-05-12T14:24:05.922Z,6.5
2023-05-12T14:25:22.129Z,7.9
2023-05-12T14:26:38.395Z,6.7
2023-05-12T14:27:54.606Z,7.6
2023-05-12T14:29:10.870Z,6.8
2023-05-12T14:30:27.083Z,7.4
2023-05-12T14:31:43.349Z,6.9
2023-05-12T14:32:59.560Z,6.7
2023-05-12T14:34:14.814Z,8.1
2023-05-12T14:35:31.029Z,7.3
2023-05-12T14:36:47.266Z,6.7
2023-05-12T14:38:03.529Z,8.3
2023-05-12T14:39:19.798Z,5.5
2023-05-12T14:40:36.005Z,8.6
2023-05-12T14:41:52.266Z,8.3
2023-05-12T14:43:08.461Z,6.1
2023-05-12T14:44:24.701Z,7.4
2023-05-12T14:45:40.982Z,7.1
2023-05-12T14:46:57.173Z,9.3
2023-05-12T14:48:13.436Z,6.2
2023-05-12T14:49:29.709Z,6.7
2023-05-12T14:50:44.904Z,5.5
2023-05-12T14:52:01.141Z,7.5
2023-05-12T14:53:17.405Z,8.1
2023-05-12T14:54:33.620Z,7.6
2023-05-12T14:55:49.882Z,6.7
2023-05-12T14:57:06.088Z,8.7
2023-05-12T14:58:22.359Z,6.7
2023-05-12T14:59:38.627Z,8.2
2023-05-12T15:00:54.835Z,7.5
2023-05-12T15:02:11.101Z,8.6
2023-05-12T15:03:27.312Z,6.9
2023-05-12T15:04:43.550Z,6.8
2023-05-12T15:05:59.759Z,8.6
2023-05-12T15:07:15.044Z,5.9
2023-05-12T15:08:31.247Z,8.4
2023-05-12T15:09:47.492Z,7.2
2023-05-12T15:11:03.759Z,7.6
2023-05-12T15:12:19.975Z,9
2023-05-12T15:13:36.237Z,6.6
2023-05-12T15:14:52.460Z,7.8
2023-05-12T15:16:08.686Z,7.6
2023-05-12T15:17:24.977Z,7.4
2023-05-12T15:18:41.192Z,7
2023-05-12T15:19:57.397Z,6.8
2023-05-12T15:21:13.637Z,8.1
2023-05-12T15:22:29.909Z,8.7
2023-05-12T15:23:45.000Z,9.2
2023-05-12T15:25:01.402Z,7.8
2023-05-12T15:26:17.640Z,6.7
2023-05-12T15:27:33.878Z,8.7
2023-05-12T15:28:50.117Z,11.1
2023-05-12T15:30:06.355Z,9
2023-05-12T15:31:22.593Z,6.4
2023-05-12T15:32:38.832Z,7.2
2023-05-12T15:33:55.070Z,9.7
2023-05-12T15:35:11.309Z,7.1
2023-05-12T15:36:27.547Z,8.5
2023-05-12T15:37:43.769Z,7.2
2023-05-12T15:39:00.026Z,9.3
2023-05-12T15:40:15.280Z,8
2023-05-12T15:41:31.519Z,7
2023-05-12T15:42:47.758Z,7.4
2023-05-12T15:44:03.996Z,8.8
2023-05-12T15:45:20.235Z,8.7
2023-05-12T15:46:36.449Z,7.7
2023-05-12T15:47:52.712Z,9.6
2023-05-12T15:49:08.951Z,9.6
2023-05-12T15:50:25.190Z,9.4
2023-05-12T15:51:41.428Z,11.8
2023-05-12T15:52:57.667Z,8.6
2023-05-12T15:54:13.942Z,7.1
2023-05-12T15:55:30.143Z,9.3
2023-05-12T15:56:45.398Z,7.8
2023-05-12T15:58:01.636Z,8.4
2023-05-12T15:59:17.847Z,6.7
2023-05-12T16:00:34.113Z,5.9
2023-05-12T16:01:50.352Z,8.1
2023-05-12T16:03:06.590Z,7.5
2023-05-12T16:04:22.828Z,7.3
2023-05-12T16:05:39.066Z,6.9
2023-05-12T16:06:55.305Z,6.6
2023-05-12T16:08:11.543Z,9.3
2023-05-12T16:09:27.781Z,8.2
2023-05-12T16:10:44.001Z,6.8
2023-05-12T16:12:00.296Z,8.3
2023-05-12T16:13:15.482Z,6.6
2023-05-12T16:14:31.719Z,6.3
2023-05-12T16:15:48.024Z,6.4
2023-05-12T16:17:04.264Z,7
2023-05-12T16:18:20.432Z,10.2
2023-05-12T16:19:36.681Z,7.1
2023-05-12T16:20:52.908Z,6
2023-05-12T16:22:09.208Z,6.7
2023-05-12T16:23:25.388Z,6.3
2023-05-12T16:24:41.631Z,6.5
2023-05-12T16:25:57.862Z,8.4
2023-05-12T16:27:14.158Z,8.4
2023-05-12T16:28:30.403Z,9.8
2023-05-12T16:29:45.599Z,10.1
2023-05-12T16:31:01.831Z,9.8
2023-05-12T16:32:18.080Z,9.3
2023-05-12T16:33:34.326Z,6.6
2023-05-12T16:34:50.615Z,6.7
2023-05-12T16:36:06.847Z,7.1
2023-05-12T16:37:22.060Z,8.7
2023-05-12T16:38:38.284Z,7.5
2023-05-12T16:39:54.524Z,7.5
2023-05-12T16:41:10.821Z,6.7
2023-05-12T16:42:27.014Z,7.8
2023-05-12T16:43:43.243Z,7.9
2023-05-12T16:44:59.484Z,7.4
2023-05-12T16:46:15.782Z,9.1
2023-05-12T16:47:31.969Z,6
2023-05-12T16:48:48.207Z,7.3
2023-05-12T16:50:04.440Z,7.6
2023-05-12T16:51:20.687Z,8.2
2023-05-12T16:52:36.925Z,7.2
2023-05-12T16:53:52.168Z,9.2
2023-05-12T16:55:08.405Z,7.6
2023-05-12T16:56:24.000Z,7.5
2023-05-12T16:57:40.000Z,9.3
2023-05-12T16:58:57.131Z,7
2023-05-12T17:00:13.364Z,7.9
2023-05-12T17:01:29.618Z,8.4
2023-05-12T17:02:45.847Z,8.9
2023-05-12T17:04:02.083Z,7.6
2023-05-12T17:05:18.384Z,8.7
2023-05-12T17:06:34.561Z,8.4
2023-05-12T17:07:50.859Z,7.6
2023-05-12T17:09:07.000Z,8.3
2023-05-12T17:10:22.294Z,6.8
2023-05-12T17:11:38.529Z,7.4
2023-05-12T17:12:54.776Z,7.9
2023-05-12T17:14:11.007Z,7.9
2023-05-12T17:15:27.320Z,7.4
2023-05-12T17:16:43.494Z,6.6
2023-05-12T17:17:59.733Z,5.4
2023-05-12T17:19:15.968Z,6.7
2023-05-12T17:20:32.262Z,7.1
2023-05-12T17:21:48.509Z,7.3
2023-05-12T17:23:04.684Z,8.8
2023-05-12T17:24:20.929Z,7.7
2023-05-12T17:25:37.161Z,7.8
2023-05-12T17:26:52.408Z,9.1
2023-05-12T17:28:08.648Z,8.9